Time;durP1;ratioP1;P1;durP2;ratioP2;P2;SDS_P1;SDS_P2;PMS_P1;PMS_P2;Temp;Humidity;BMP_temperature;BMP_pressure;BME280_temperature;BME280_humidity;BME280_pressure;Samples;Min_cycle;Max_cycle;Signal;HPM_P1;HPM_P2
2023/07/11 00:02:15;;;;;;;0.80;0.65;;;;;;;-145.06;0.00;60892.56;5892524;23;20010;-90
2023/07/11 00:04:54;;;;;;;0.75;0.40;;;;;;;-145.06;0.00;60892.56;5883568;23;20010;-90
2023/07/11 00:07:33;;;;;;;0.70;0.60;;;;;;;-145.06;0.00;60892.56;5861064;23;20014;-90
2023/07/11 00:10:14;;;;;;;1.23;0.45;;;;;;;21.96;0.00;60892.56;5860569;23;20014;-91
2023/07/11 00:12:53;;;;;;;0.80;0.60;;;;;;;-145.06;0.00;60892.56;5860893;23;20010;-90
2023/07/11 00:15:32;;;;;;;0.47;0.30;;;;;;;-145.06;0.00;60892.56;5858057;23;20010;-90
2023/07/11 00:18:12;;;;;;;0.90;0.57;;;;;;;-145.06;0.00;60892.56;5861990;23;20014;-90
2023/07/11 00:20:51;;;;;;;0.30;0.30;;;;;;;-145.06;0.00;60892.56;5859788;23;20006;-89
2023/07/11 00:23:30;;;;;;;0.77;0.45;;;;;;;187.52;0.00;60892.56;5892045;23;20015;-90
2023/07/11 00:26:09;;;;;;;0.82;0.50;;;;;;;-145.06;0.00;60892.56;5860707;23;20010;-90
2023/07/11 00:28:48;;;;;;;0.77;0.40;;;;;;;-145.06;0.00;60892.56;5892322;23;20038;-90
2023/07/11 00:31:27;;;;;;;0.63;0.40;;;;;;;-145.06;0.00;60892.56;5857913;23;20014;-90
2023/07/11 00:34:06;;;;;;;0.53;0.37;;;;;;;-145.06;0.00;60892.56;5860638;23;20239;-91
2023/07/11 00:36:45;;;;;;;1.17;0.45;;;;;;;-145.06;0.00;60892.56;5860402;23;20242;-90
2023/07/11 00:39:27;;;;;;;0.65;0.40;;;;;;;-145.06;0.00;60892.56;5892360;23;20089;-90
2023/07/11 00:42:08;;;;;;;0.73;0.40;;;;;;;-145.06;0.00;60892.56;5891876;23;20377;-89
2023/07/11 00:44:53;;;;;;;0.32;0.30;;;;;;;-145.06;0.00;60892.56;5890750;23;20014;-90
2023/07/11 00:47:32;;;;;;;1.15;0.50;;;;;;;-145.06;0.00;60892.56;5862707;23;20007;-89
2023/07/11 00:50:11;;;;;;;0.47;0.40;;;;;;;-145.06;0.00;60892.56;5860077;23;20089;-90
2023/07/11 00:52:50;;;;;;;0.57;0.37;;;;;;;-145.06;0.00;60892.56;5860514;23;20239;-90
2023/07/11 00:55:29;;;;;;;0.65;0.52;;;;;;;-145.06;0.00;60892.56;5855600;23;20262;-90
2023/07/11 00:58:09;;;;;;;0.55;0.45;;;;;;;-145.06;0.00;60892.56;5858076;23;20018;-90
2023/07/11 01:00:48;;;;;;;1.25;0.50;;;;;;;-145.06;0.00;60892.56;5860543;23;20089;-91
2023/07/11 01:03:28;;;;;;;0.55;0.40;;;;;;;-145.06;0.00;60892.56;5860896;23;20010;-90
2023/07/11 01:06:12;;;;;;;0.52;0.40;;;;;;;-145.06;0.00;60892.56;5860798;23;20011;-90
2023/07/11 01:08:54;;;;;;;0.75;0.47;;;;;;;-145.06;0.00;60892.56;5861244;23;20007;-90
2023/07/11 01:11:51;;;;;;;0.98;0.55;;;;;;;21.05;0.00;60892.56;5890820;23;20014;-90
2023/07/11 01:14:30;;;;;;;0.77;0.60;;;;;;;-145.06;0.00;60892.56;5861069;23;20284;-90
2023/07/11 01:17:29;;;;;;;0.50;0.30;;;;;;;-145.06;0.00;60892.56;5860914;23;20014;-89
2023/07/11 01:20:09;;;;;;;0.55;0.40;;;;;;;-145.06;0.00;60892.56;5860156;23;20002;-90
2023/07/11 01:22:52;;;;;;;1.08;0.35;;;;;;;20.99;0.00;60892.56;5860150;23;20006;-90
2023/07/11 01:25:32;;;;;;;1.13;0.50;;;;;;;-145.06;0.00;60892.56;5860506;23;20006;-89
2023/07/11 01:28:13;;;;;;;0.75;0.50;;;;;;;-145.06;0.00;60892.56;5891494;23;20014;-90
2023/07/11 01:30:51;;;;;;;0.55;0.47;;;;;;;-145.06;0.00;60892.56;5858976;23;20014;-89
2023/07/11 01:33:31;;;;;;;1.08;0.52;;;;;;;-145.06;0.00;60892.56;5860799;23;20085;-90
2023/07/11 01:36:10;;;;;;;0.80;0.50;;;;;;;-145.06;0.00;60892.56;5860174;23;20054;-90
2023/07/11 01:38:49;;;;;;;0.32;0.30;;;;;;;-145.06;0.00;60892.56;5891138;23;20327;-89
2023/07/11 01:41:28;;;;;;;1.20;0.60;;;;;;;-145.06;0.00;60892.56;5858593;23;20442;-90
2023/07/11 01:44:10;;;;;;;0.68;0.52;;;;;;;-145.06;0.00;60892.56;5859811;23;20444;-91
2023/07/11 01:46:48;;;;;;;0.68;0.45;;;;;;;-145.06;0.00;60892.56;5856922;23;20014;-90
2023/07/11 01:49:28;;;;;;;0.70;0.43;;;;;;;-145.06;0.00;60892.56;5860746;23;20450;-90
2023/07/11 01:52:18;;;;;;;0.98;0.55;;;;;;;-145.06;0.00;60892.56;5860527;23;20449;-90
2023/07/11 01:54:57;;;;;;;0.60;0.45;;;;;;;-145.06;0.00;60892.56;5860810;23;20014;-90
2023/07/11 01:57:36;;;;;;;0.60;0.40;;;;;;;-145.06;0.00;60892.56;5860881;23;20470;-90
2023/07/11 02:00:15;;;;;;;0.82;0.50;;;;;;;-145.06;0.00;60892.56;5858909;23;20037;-90
2023/07/11 02:02:54;;;;;;;0.90;0.43;;;;;;;-145.06;0.00;60892.56;5858218;23;20291;-90
2023/07/11 02:05:34;;;;;;;0.50;0.35;;;;;;;-145.06;0.00;60892.56;5859026;23;20228;-90
2023/07/11 02:08:13;;;;;;;0.70;0.52;;;;;;;-145.06;0.00;60892.56;5858819;23;20302;-89
2023/07/11 02:10:52;;;;;;;1.17;0.52;;;;;;;-145.06;0.00;60892.56;5854412;23;20014;-90
2023/07/11 02:13:31;;;;;;;0.60;0.50;;;;;;;-145.06;0.00;60892.56;5866111;23;19990;-90
2023/07/11 02:16:10;;;;;;;0.80;0.50;;;;;;;-145.06;0.00;60892.56;5884464;23;20003;-90
2023/07/11 02:18:49;;;;;;;5.03;0.60;;;;;;;-145.06;0.00;60892.56;5903661;23;20018;-90
2023/07/11 02:21:28;;;;;;;0.70;0.50;;;;;;;20.75;0.00;60892.56;5858743;23;20109;-91
2023/07/11 02:24:09;;;;;;;0.40;0.32;;;;;;;-145.06;0.00;60892.56;5859558;23;20476;-90
2023/07/11 02:26:48;;;;;;;0.70;0.40;;;;;;;-145.06;0.00;60892.56;5859804;23;20014;-89
2023/07/11 02:29:27;;;;;;;0.70;0.55;;;;;;;-145.06;0.00;60892.56;5860483;23;20006;-90
2023/07/11 02:32:07;;;;;;;0.63;0.47;;;;;;;-145.06;0.00;60892.56;5860415;23;20006;-91
2023/07/11 02:34:46;;;;;;;0.65;0.50;;;;;;;-145.06;0.00;60892.56;5859056;23;20007;-89
2023/07/11 02:37:25;;;;;;;0.47;0.47;;;;;;;-145.06;0.00;60892.56;5859236;23;20121;-90
2023/07/11 02:40:04;;;;;;;0.47;0.38;;;;;;;-145.06;0.00;60892.56;5859720;23;20445;-90
2023/07/11 02:42:44;;;;;;;8.20;1.02;;;;;;;-145.06;0.00;60892.56;5859221;23;20007;-90
2023/07/11 02:45:23;;;;;;;3.90;0.50;;;;;;;-145.06;0.00;60892.56;5860422;23;20006;-89
2023/07/11 02:48:02;;;;;;;0.50;0.30;;;;;;;-145.06;0.00;60892.56;5859841;23;20257;-89
2023/07/11 02:50:41;;;;;;;0.50;0.40;;;;;;;-145.06;0.00;60892.56;5859379;23;20018;-90
2023/07/11 02:53:20;;;;;;;0.87;0.60;;;;;;;-145.06;0.00;60892.56;5858631;23;20238;-91
2023/07/11 02:55:59;;;;;;;0.70;0.53;;;;;;;-145.06;0.00;60892.56;5861724;23;20235;-90
2023/07/11 02:58:38;;;;;;;0.35;0.30;;;;;;;-145.06;0.00;60892.56;5859441;23;20007;-90
2023/07/11 03:01:17;;;;;;;0.65;0.50;;;;;;;187.52;0.00;60892.56;5856877;23;20010;-89
2023/07/11 03:03:56;;;;;;;2.30;0.40;;;;;;;-145.06;0.00;60892.56;5857256;23;20029;-90
2023/07/11 03:06:35;;;;;;;0.55;0.40;;;;;;;20.38;0.00;60892.56;5857853;23;20011;-89
2023/07/11 03:09:14;;;;;;;1.03;0.93;;;;;;;-145.06;0.00;60892.56;5860261;23;20062;-90
2023/07/11 03:11:53;;;;;;;0.50;0.40;;;;;;;20.38;0.00;60892.56;5858725;23;20669;-89
2023/07/11 03:14:32;;;;;;;0.30;0.30;;;;;;;-145.06;0.00;60892.56;5880809;23;20450;-90
2023/07/11 03:17:11;;;;;;;0.20;0.20;;;;;;;-145.06;0.00;60892.56;5859930;23;20010;-90
2023/07/11 03:19:50;;;;;;;0.40;0.40;;;;;;;-145.06;0.00;60892.56;5858299;23;20006;-89
2023/07/11 03:22:29;;;;;;;0.60;0.50;;;;;;;-145.06;0.00;60892.56;5859123;23;20011;-89
2023/07/11 03:25:09;;;;;;;0.63;0.45;;;;;;;-145.06;0.00;60892.56;5857923;23;20010;-90
2023/07/11 03:27:47;;;;;;;1.13;0.50;;;;;;;-145.06;0.00;60892.56;5887132;23;20010;-89
2023/07/11 03:30:27;;;;;;;0.50;0.40;;;;;;;-145.06;0.00;60892.56;5857411;23;20010;-90
2023/07/11 03:33:06;;;;;;;0.50;0.40;;;;;;;-145.06;0.00;60892.56;5857964;23;20326;-89
2023/07/11 03:35:51;;;;;;;0.60;0.60;;;;;;;-145.06;0.00;60892.56;5855064;23;20014;-89
2023/07/11 03:38:30;;;;;;;0.60;0.40;;;;;;;-145.06;0.00;60892.56;5889986;23;20007;-90
2023/07/11 03:41:09;;;;;;;0.77;0.50;;;;;;;-145.06;0.00;60892.56;5857523;23;20010;-90
2023/07/11 03:43:48;;;;;;;0.88;0.40;;;;;;;-145.06;0.00;60892.56;5862760;23;20006;-90
2023/07/11 03:46:27;;;;;;;0.55;0.45;;;;;;;-145.06;0.00;60892.56;5861371;23;20006;-90
2023/07/11 03:49:06;;;;;;;0.50;0.50;;;;;;;-145.06;0.00;60892.56;5865159;23;20331;-91
2023/07/11 03:51:45;;;;;;;0.53;0.40;;;;;;;-145.06;0.00;60892.56;5860819;23;20037;-92
2023/07/11 03:54:24;;;;;;;2.30;0.60;;;;;;;-145.06;0.00;60892.56;5860863;23;20014;-89
2023/07/11 03:57:03;;;;;;;0.63;0.40;;;;;;;-145.06;0.00;60892.56;5862942;23;20002;-91
2023/07/11 03:59:42;;;;;;;0.60;0.40;;;;;;;-145.06;0.00;60892.56;5864330;23;20010;-92
2023/07/11 04:02:21;;;;;;;0.50;0.40;;;;;;;-145.06;0.00;60892.56;5863912;23;20006;-89
2023/07/11 04:05:00;;;;;;;0.90;0.47;;;;;;;-145.06;0.00;60892.56;5867205;23;20438;-90
2023/07/11 04:07:40;;;;;;;0.60;0.43;;;;;;;-145.06;0.00;60892.56;5867203;23;20426;-91
2023/07/11 04:10:19;;;;;;;0.50;0.50;;;;;;;20.36;0.00;60892.56;5865884;23;20010;-90
2023/07/11 04:12:57;;;;;;;0.73;0.60;;;;;;;-145.06;0.00;60892.56;5867860;23;20447;-90
2023/07/11 04:15:37;;;;;;;2.00;0.70;;;;;;;-145.06;0.00;60892.56;5865349;23;20030;-90
2023/07/11 04:18:16;;;;;;;0.63;0.50;;;;;;;-145.06;0.00;60892.56;5866363;23;20242;-91
2023/07/11 04:20:55;;;;;;;1.00;0.60;;;;;;;-145.06;0.00;60892.56;5865629;23;20374;-89
2023/07/11 04:23:34;;;;;;;0.60;0.50;;;;;;;-145.06;0.00;60892.56;5865279;23;20694;-92
2023/07/11 04:26:13;;;;;;;0.85;0.45;;;;;;;20.39;0.00;60892.56;5864829;23;20030;-92
2023/07/11 04:28:52;;;;;;;0.65;0.30;;;;;;;-145.06;0.00;60892.56;5864621;23;20014;-91
2023/07/11 04:31:32;;;;;;;0.43;0.40;;;;;;;-145.06;0.00;60892.56;5863771;23;20433;-91
2023/07/11 04:34:11;;;;;;;0.63;0.50;;;;;;;-145.06;0.00;60892.56;5865044;23;20239;-91
2023/07/11 04:36:49;;;;;;;1.13;0.40;;;;;;;-145.06;0.00;60892.56;5865738;23;20006;-92
2023/07/11 04:39:31;;;;;;;1.15;0.50;;;;;;;-145.06;0.00;60892.56;5866202;23;20010;-91
2023/07/11 04:42:10;;;;;;;0.50;0.40;;;;;;;-145.06;0.00;60892.56;5862519;23;20006;-91
2023/07/11 04:44:49;;;;;;;0.82;0.55;;;;;;;-145.06;0.00;60892.56;5864676;23;20010;-92
2023/07/11 04:47:28;;;;;;;2.37;0.87;;;;;;;-145.06;0.00;60892.56;5866009;23;20326;-91
2023/07/11 04:50:07;;;;;;;0.50;0.40;;;;;;;20.49;0.00;60892.56;5864265;23;20247;-91
2023/07/11 04:52:47;;;;;;;1.00;0.60;;;;;;;-145.06;0.00;60892.56;5865020;23;19999;-91
2023/07/11 04:55:26;;;;;;;0.85;0.45;;;;;;;-145.06;0.00;60892.56;5862690;23;20010;-90
2023/07/11 04:58:04;;;;;;;0.50;0.47;;;;;;;20.75;0.00;60892.56;5859685;23;20014;-92
2023/07/11 05:00:43;;;;;;;1.05;0.60;;;;;;;-145.06;0.00;60892.56;5861894;23;20010;-90
2023/07/11 05:03:22;;;;;;;1.00;0.60;;;;;;;-145.06;0.00;60892.56;5861669;23;20010;-90
2023/07/11 05:06:03;;;;;;;0.77;0.50;;;;;;;-145.06;0.00;60892.56;5893167;23;20045;-90
2023/07/11 05:08:43;;;;;;;0.85;0.55;;;;;;;-145.06;0.00;60892.56;5862627;23;20018;-90
2023/07/11 05:11:22;;;;;;;0.70;0.40;;;;;;;-145.06;0.00;60892.56;5861315;23;20446;-90
2023/07/11 05:14:01;;;;;;;0.68;0.57;;;;;;;20.75;0.00;60892.56;5862705;23;20033;-91
2023/07/11 05:16:40;;;;;;;1.48;0.60;;;;;;;-145.06;0.00;60892.56;5862126;23;20061;-90
2023/07/11 05:19:19;;;;;;;0.63;0.50;;;;;;;-145.06;0.00;60892.56;5861604;23;20014;-89
2023/07/11 05:21:58;;;;;;;0.82;0.60;;;;;;;-145.06;0.00;60892.56;5861155;23;20220;-90
2023/07/11 05:24:37;;;;;;;1.05;0.60;;;;;;;20.76;0.00;60892.56;5859541;23;20319;-90
2023/07/11 05:27:16;;;;;;;0.57;0.50;;;;;;;20.82;0.00;60892.56;5861001;23;20006;-90
2023/07/11 05:29:55;;;;;;;0.60;0.40;;;;;;;20.86;0.00;60892.56;5862282;23;20238;-90
2023/07/11 05:32:34;;;;;;;0.73;0.55;;;;;;;-145.06;0.00;60892.56;5870795;23;20006;-92
2023/07/11 05:35:13;;;;;;;0.47;0.40;;;;;;;-145.06;0.00;60892.56;5886606;23;20023;-90
2023/07/11 05:37:52;;;;;;;0.95;0.55;;;;;;;-145.06;0.00;60892.56;5870671;23;20018;-90
2023/07/11 05:40:32;;;;;;;0.63;0.40;;;;;;;-145.06;0.00;60892.56;5861478;23;20450;-90
2023/07/11 05:43:11;;;;;;;0.82;0.45;;;;;;;-145.06;0.00;60892.56;5893383;23;20520;-90
2023/07/11 05:45:50;;;;;;;1.65;1.15;;;;;;;-145.06;0.00;60892.56;5861330;23;20438;-90
2023/07/11 05:48:29;;;;;;;0.80;0.50;;;;;;;-145.06;0.00;60892.56;5861154;23;20077;-90
2023/07/11 05:51:11;;;;;;;0.75;0.50;;;;;;;-145.06;0.00;60892.56;5860515;23;20010;-90
2023/07/11 05:53:50;;;;;;;0.85;0.50;;;;;;;-145.06;0.00;60892.56;5861020;23;20433;-90
2023/07/11 05:56:29;;;;;;;0.82;0.60;;;;;;;21.44;0.00;60892.56;5861664;23;20010;-89
2023/07/11 05:59:08;;;;;;;0.65;0.55;;;;;;;-145.06;0.00;60892.56;5892789;23;20010;-91
2023/07/11 06:01:47;;;;;;;0.70;0.40;;;;;;;-145.06;0.00;60892.56;5860799;23;20278;-91
2023/07/11 06:04:26;;;;;;;0.77;0.47;;;;;;;-145.06;0.00;60892.56;5860759;23;20006;-91
2023/07/11 06:07:05;;;;;;;0.82;0.50;;;;;;;-145.06;0.00;60892.56;5892064;23;20319;-90
2023/07/11 06:09:44;;;;;;;0.30;0.30;;;;;;;-145.06;0.00;60892.56;5861050;23;20010;-90
2023/07/11 06:12:23;;;;;;;0.70;0.47;;;;;;;-145.06;0.00;60892.56;5861583;23;20383;-89
2023/07/11 06:15:02;;;;;;;0.77;0.45;;;;;;;-145.06;0.00;60892.56;5889956;23;20425;-89
2023/07/11 06:17:41;;;;;;;0.50;0.40;;;;;;;-145.06;0.00;60892.56;5858773;23;20082;-90
2023/07/11 06:20:20;;;;;;;0.60;0.50;;;;;;;-145.06;0.00;60892.56;5857681;23;20014;-89
2023/07/11 06:22:59;;;;;;;0.70;0.40;;;;;;;-145.06;0.00;60892.56;5858584;23;20010;-88
2023/07/11 06:25:38;;;;;;;0.88;0.50;;;;;;;-145.06;0.00;60892.56;5857710;23;20242;-89
2023/07/11 06:28:17;;;;;;;0.63;0.40;;;;;;;-145.06;0.00;60892.56;5884694;23;20334;-88
2023/07/11 06:30:58;;;;;;;1.15;0.80;;;;;;;-145.06;0.00;60892.56;5890495;23;20010;-90
2023/07/11 06:33:37;;;;;;;0.98;0.47;;;;;;;-145.06;0.00;60892.56;5857759;23;20014;-90
2023/07/11 06:36:19;;;;;;;0.98;0.50;;;;;;;-145.06;0.00;60892.56;5880756;23;20026;-89
2023/07/11 06:38:58;;;;;;;0.50;0.50;;;;;;;-145.06;0.00;60892.56;5858183;23;20002;-89
2023/07/11 06:41:38;;;;;;;0.65;0.38;;;;;;;-145.06;0.00;60892.56;5888746;23;20010;-89
2023/07/11 06:44:17;;;;;;;0.45;0.40;;;;;;;-145.06;0.00;60892.56;5859789;23;20010;-90
2023/07/11 06:46:56;;;;;;;0.50;0.40;;;;;;;-145.06;0.00;60892.56;5860127;23;20006;-90
2023/07/11 06:49:36;;;;;;;0.55;0.50;;;;;;;-145.06;0.00;60892.56;5858220;23;20433;-89
2023/07/11 06:52:15;;;;;;;1.13;0.68;;;;;;;23.11;0.00;60892.56;5889954;23;20002;-88
2023/07/11 06:54:55;;;;;;;1.48;0.50;;;;;;;-145.06;0.00;60892.56;5880486;23;20018;-89
2023/07/11 06:57:34;;;;;;;0.50;0.50;;;;;;;-145.06;0.00;60892.56;5858022;23;20010;-89
2023/07/11 07:00:14;;;;;;;1.13;0.50;;;;;;;-145.06;0.00;60892.56;5856376;23;20014;-89
2023/07/11 07:02:52;;;;;;;0.82;0.50;;;;;;;23.57;0.00;60892.56;5856244;23;20085;-89
2023/07/11 07:05:31;;;;;;;0.40;0.30;;;;;;;-145.06;0.00;60892.56;5858802;23;20042;-89
2023/07/11 07:08:10;;;;;;;0.80;0.50;;;;;;;-145.06;0.00;60892.56;5857914;23;20010;-89
2023/07/11 07:10:50;;;;;;;0.45;0.38;;;;;;;-145.06;0.00;60892.56;5886752;23;20006;-89
2023/07/11 07:13:29;;;;;;;1.95;0.60;;;;;;;62.66;0.00;60892.56;5879975;23;20006;-90
2023/07/11 07:16:08;;;;;;;0.40;0.30;;;;;;;-145.06;0.00;60892.56;5890818;23;20014;-89
2023/07/11 07:18:48;;;;;;;0.82;0.32;;;;;;;-145.06;0.00;60892.56;5889298;23;20011;-90
2023/07/11 07:21:27;;;;;;;0.98;0.50;;;;;;;-145.06;0.00;60892.56;5857429;23;20010;-90
2023/07/11 07:24:07;;;;;;;0.25;0.20;;;;;;;187.52;0.00;60892.56;5858413;23;20034;-89
2023/07/11 07:26:46;;;;;;;0.50;0.43;;;;;;;-145.06;0.00;60892.56;5856849;23;20305;-90
2023/07/11 07:29:25;;;;;;;0.80;0.40;;;;;;;-145.06;0.00;60892.56;5858185;23;20014;-90
2023/07/11 07:32:04;;;;;;;1.02;0.50;;;;;;;187.52;0.00;60892.56;5859050;23;20533;-89
2023/07/11 07:34:43;;;;;;;;;;;;;;;-145.06;0.00;60892.56;5859331;23;20010;-90
2023/07/11 07:37:22;;;;;;;1.05;0.40;;;;;;;-145.06;0.00;60892.56;5857295;23;19952;-89
2023/07/11 07:40:02;;;;;;;1.27;0.60;;;;;;;-145.06;0.00;60892.56;5858006;23;20632;-89
2023/07/11 07:42:41;;;;;;;0.80;0.77;;;;;;;-145.06;0.00;60892.56;5860145;23;20041;-89
2023/07/11 07:45:20;;;;;;;1.27;0.60;;;;;;;-145.06;0.00;60892.56;5860352;23;20018;-90
2023/07/11 07:47:58;;;;;;;0.70;0.40;;;;;;;-145.06;0.00;60892.56;5860580;23;20038;-90
2023/07/11 07:50:37;;;;;;;0.90;0.60;;;;;;;25.75;0.00;60892.56;5860163;23;20014;-89
2023/07/11 07:53:17;;;;;;;0.90;0.65;;;;;;;-145.06;0.00;60892.56;5882741;23;20014;-89
2023/07/11 07:56:03;;;;;;;0.65;0.57;;;;;;;-145.06;0.00;60892.56;5859754;23;20466;-89
2023/07/11 07:58:42;;;;;;;0.82;0.60;;;;;;;-145.06;0.00;60892.56;5862430;23;20023;-89
2023/07/11 08:01:21;;;;;;;1.27;0.60;;;;;;;-145.06;0.00;60892.56;5859348;23;20294;-89
2023/07/11 08:04:00;;;;;;;0.75;0.60;;;;;;;-145.06;0.00;60892.56;5863360;23;20323;-89
2023/07/11 08:06:39;;;;;;;0.75;0.50;;;;;;;-145.06;0.00;60892.56;5861622;23;20014;-90
2023/07/11 08:09:18;;;;;;;1.10;0.70;;;;;;;-145.06;0.00;60892.56;5862006;23;20010;-90
2023/07/11 08:12:05;;;;;;;0.82;0.50;;;;;;;-145.06;0.00;60892.56;5892333;23;20026;-90
2023/07/11 08:14:44;;;;;;;0.90;0.70;;;;;;;-145.06;0.00;60892.56;5892505;23;20010;-90
2023/07/11 08:17:27;;;;;;;1.85;1.15;;;;;;;-145.06;0.00;60892.56;5861806;23;20010;-91
2023/07/11 08:20:07;;;;;;;0.93;0.60;;;;;;;-145.06;0.00;60892.56;5893133;23;20006;-91
2023/07/11 08:22:47;;;;;;;0.68;0.55;;;;;;;-145.06;0.00;60892.56;5860873;23;20315;-90
2023/07/11 08:25:26;;;;;;;0.80;0.60;;;;;;;27.57;0.00;60892.56;5891177;23;20018;-89
2023/07/11 08:28:05;;;;;;;3.65;0.70;;;;;;;27.60;0.00;60892.56;5892019;23;20092;-90
2023/07/11 08:30:45;;;;;;;1.08;0.70;;;;;;;27.69;0.00;60892.56;5859693;23;20453;-88
2023/07/11 08:33:24;;;;;;;0.82;0.70;;;;;;;-145.06;0.00;60892.56;5861402;23;20006;-89
2023/07/11 08:36:03;;;;;;;1.52;0.70;;;;;;;-145.06;0.00;60892.56;5891035;23;20073;-90
2023/07/11 08:38:45;;;;;;;0.95;0.45;;;;;;;-145.06;0.00;60892.56;5861454;23;20014;-90
2023/07/11 08:41:44;;;;;;;1.08;0.60;;;;;;;-145.06;0.00;60892.56;5859102;23;20011;-88
2023/07/11 08:44:37;;;;;;;0.90;0.50;;;;;;;-145.06;0.00;60892.56;5860133;23;20014;-90
2023/07/11 08:47:25;;;;;;;0.80;0.60;;;;;;;28.87;0.00;60892.56;5860059;23;20006;-91
2023/07/11 08:50:18;;;;;;;1.05;0.70;;;;;;;28.55;0.00;60892.56;5877434;23;19994;-89
2023/07/11 08:53:10;;;;;;;1.48;0.73;;;;;;;187.52;0.00;60892.56;5915434;23;20019;-90
2023/07/11 08:55:52;;;;;;;1.00;0.70;;;;;;;28.53;0.00;60892.56;5888791;23;20026;-89
2023/07/11 08:58:38;;;;;;;0.47;0.40;;;;;;;41.86;0.00;60892.56;5860188;23;20006;-90
2023/07/11 09:01:50;;;;;;;1.52;0.73;;;;;;;-145.06;0.00;60892.56;5856250;23;20010;-91
2023/07/11 09:04:30;;;;;;;1.08;0.68;;;;;;;-145.06;0.00;60892.56;5880838;23;20010;-90
2023/07/11 09:07:25;;;;;;;0.70;0.60;;;;;;;28.91;0.00;60892.56;5858684;23;20082;-91
2023/07/11 09:10:19;;;;;;;1.52;0.80;;;;;;;-145.06;0.00;60892.56;5857989;23;20014;-90
2023/07/11 09:13:05;;;;;;;1.33;0.63;;;;;;;-145.06;0.00;60892.56;5891905;23;19998;-91
2023/07/11 09:15:57;;;;;;;0.65;0.50;;;;;;;-145.06;0.00;60892.56;5860454;23;20010;-91
2023/07/11 09:19:01;;;;;;;1.27;0.75;;;;;;;-145.06;0.00;60892.56;5857562;23;20042;-91
2023/07/11 09:21:51;;;;;;;0.90;0.57;;;;;;;-145.06;0.00;60892.56;5859463;23;20036;-92
2023/07/11 09:24:52;;;;;;;0.77;0.60;;;;;;;-145.06;0.00;60892.56;5856636;23;20011;-92
2023/07/11 09:27:36;;;;;;;1.13;0.60;;;;;;;29.45;0.00;60892.56;5859255;23;20010;-92
2023/07/11 09:30:41;;;;;;;1.02;0.70;;;;;;;-145.06;0.00;60892.56;5859468;23;20007;-93
2023/07/11 09:33:39;;;;;;;2.15;0.65;;;;;;;-145.06;0.00;60892.56;5859628;23;20006;-92
2023/07/11 09:36:22;;;;;;;1.70;0.60;;;;;;;29.64;0.00;60892.56;5864247;23;20010;-91
2023/07/11 09:39:16;;;;;;;0.93;0.70;;;;;;;-145.06;0.00;60892.56;5859995;23;20010;-92
2023/07/11 09:42:05;;;;;;;0.50;0.50;;;;;;;-145.06;0.00;60892.56;5863920;23;20002;-91
2023/07/11 09:45:00;;;;;;;0.55;0.55;;;;;;;-145.06;0.00;60892.56;5863378;23;20010;-93
2023/07/11 09:47:41;;;;;;;0.40;0.40;;;;;;;-145.06;0.00;60892.56;5864625;23;20085;-91
2023/07/11 09:50:58;;;;;;;1.30;0.60;;;;;;;-145.06;0.00;60892.56;5861497;23;20002;-92
2023/07/11 09:53:44;;;;;;;1.13;0.60;;;;;;;-145.06;0.00;60892.56;5860041;23;20463;-92
2023/07/11 09:56:25;;;;;;;1.05;0.60;;;;;;;-145.06;0.00;60892.56;5860580;23;20014;-92
2023/07/11 09:59:04;;;;;;;0.40;0.40;;;;;;;-145.06;0.00;60892.56;5861712;23;20010;-93
2023/07/11 10:01:43;;;;;;;0.70;0.50;;;;;;;-145.06;0.00;60892.56;5859297;23;20010;-91
2023/07/11 10:04:24;;;;;;;0.95;0.50;;;;;;;-145.06;0.00;60892.56;5858534;23;20018;-89
2023/07/11 10:07:04;;;;;;;0.90;0.70;;;;;;;-145.06;0.00;60892.56;5858830;23;20323;-90
2023/07/11 10:09:45;;;;;;;0.55;0.40;;;;;;;-145.06;0.00;60892.56;5858267;23;20011;-91
2023/07/11 10:12:24;;;;;;;0.90;0.50;;;;;;;-145.06;0.00;60892.56;5859148;23;20006;-91
2023/07/11 10:15:16;;;;;;;0.90;0.60;;;;;;;-145.06;0.00;60892.56;5860599;23;20078;-92
2023/07/11 10:17:56;;;;;;;1.02;0.60;;;;;;;-145.06;0.00;60892.56;5862055;23;20002;-92
2023/07/11 10:20:35;;;;;;;0.77;0.50;;;;;;;-145.06;0.00;60892.56;5861150;23;20014;-93
2023/07/11 10:23:21;;;;;;;0.90;0.73;;;;;;;-145.06;0.00;60892.56;5862148;23;20002;-92
2023/07/11 10:26:27;;;;;;;0.70;0.60;;;;;;;-145.06;0.00;60892.56;5860783;23;20501;-92
2023/07/11 10:29:14;;;;;;;0.70;0.63;;;;;;;-145.06;0.00;60892.56;5860463;23;20083;-91
2023/07/11 10:31:58;;;;;;;0.52;0.45;;;;;;;-145.06;0.00;60892.56;5892101;23;20081;-94
2023/07/11 10:34:39;;;;;;;0.93;0.40;;;;;;;31.33;0.00;60892.56;5861562;23;20037;-92
2023/07/11 10:37:34;;;;;;;0.70;0.40;;;;;;;-145.06;0.00;60892.56;5860713;23;20433;-91
2023/07/11 10:40:28;;;;;;;0.70;0.45;;;;;;;-145.06;0.00;60892.56;5861686;23;20034;-93
2023/07/11 10:43:26;;;;;;;0.80;0.55;;;;;;;-145.06;0.00;60892.56;5862666;23;20307;-92
2023/07/11 10:46:16;;;;;;;0.95;0.60;;;;;;;-145.06;0.00;60892.56;5861941;23;20010;-90
2023/07/11 10:49:00;;;;;;;0.40;0.38;;;;;;;-145.06;0.00;60892.56;5893262;23;20014;-94
2023/07/11 10:51:49;;;;;;;1.05;0.47;;;;;;;-145.06;0.00;60892.56;5863897;23;20287;-94
2023/07/11 10:54:44;;;;;;;;;;;;;;;-145.06;0.00;60892.56;5865059;23;20018;-92
2023/07/11 10:57:36;;;;;;;0.40;0.30;;;;;;;-145.06;0.00;60892.56;5894900;23;19905;-93
2023/07/11 11:00:24;;;;;;;0.55;0.30;;;;;;;-145.06;0.00;60892.56;5862993;23;20003;-93
2023/07/11 11:03:25;;;;;;;0.32;0.30;;;;;;;187.52;0.00;60892.56;5864623;23;20026;-94
2023/07/11 11:06:19;;;;;;;0.85;0.40;;;;;;;-145.06;0.00;60892.56;5867124;23;20003;-94
2023/07/11 11:09:14;;;;;;;0.30;0.30;;;;;;;32.36;0.00;60892.56;5866118;23;20010;-94
2023/07/11 11:12:04;;;;;;;0.60;0.40;;;;;;;32.39;0.00;60892.56;5868129;23;20002;-94
2023/07/11 11:29:28;;;;;;;0.30;0.25;;;;;;;-145.06;0.00;60892.56;5895357;23;20074;-92
2023/07/11 11:32:23;;;;;;;0.40;0.30;;;;;;;-145.06;0.00;60892.56;5806040;23;20003;-93
2023/07/11 11:35:39;;;;;;;;;;;;;;;;;;;;;
2023/07/11 11:38:59;;;;;;;0.47;0.30;;;;;;;-145.06;0.00;60892.56;5842820;23;20003;-94
2023/07/11 11:41:46;;;;;;;0.47;0.20;;;;;;;-145.06;0.00;60892.56;5831567;23;20003;-95
2023/07/11 11:45:17;;;;;;;0.30;0.30;;;;;;;-145.06;0.00;60892.56;5836469;23;20075;-93
2023/07/11 11:47:59;;;;;;;0.95;0.50;;;;;;;104.26;0.00;60892.56;5830268;23;20094;-91
2023/07/11 11:50:40;;;;;;;0.80;0.30;;;;;;;-145.06;0.00;60892.56;5824860;23;20336;-89
2023/07/11 11:53:43;;;;;;;0.40;0.35;;;;;;;-145.06;0.00;60892.56;5838346;23;20323;-91
2023/07/11 11:56:26;;;;;;;0.45;0.30;;;;;;;-145.06;0.00;60892.56;5826548;23;20008;-91
2023/07/11 11:59:16;;;;;;;2.55;0.40;;;;;;;104.26;0.00;60892.56;5827158;23;20062;-90
2023/07/11 12:02:24;;;;;;;0.73;0.40;;;;;;;-145.06;0.00;60892.56;5843822;23;20049;-93
2023/07/11 12:05:20;;;;;;;0.50;0.40;;;;;;;-145.06;0.00;60892.56;5830794;23;20007;-92
2023/07/11 12:08:27;;;;;;;0.57;0.30;;;;;;;-145.06;0.00;60892.56;5812571;23;20004;-93
2023/07/11 12:11:10;;;;;;;0.75;0.30;;;;;;;-145.06;0.00;60892.56;5815656;23;20414;-92
2023/07/11 12:14:18;;;;;;;0.68;0.45;;;;;;;-145.06;0.00;60892.56;5834033;23;20003;-91
2023/07/11 12:17:00;;;;;;;0.50;0.40;;;;;;;-145.06;0.00;60892.56;5843778;23;20007;-92
2023/07/11 12:19:56;;;;;;;0.40;0.30;;;;;;;-145.06;0.00;60892.56;5845483;23;20003;-93
2023/07/11 12:28:50;;;;;;;0.80;0.52;;;;;;;-145.06;0.00;60892.56;5894180;23;20018;-90
2023/07/11 12:31:29;;;;;;;0.75;0.40;;;;;;;-145.06;0.00;60892.56;5837369;23;20010;-92
2023/07/11 12:34:18;;;;;;;;;;;;;;;-145.06;0.00;60892.56;5872833;23;20003;-89
2023/07/11 12:37:04;;;;;;;0.65;0.40;;;;;;;-145.06;0.00;60892.56;5840908;23;20161;-90
2023/07/11 12:40:08;;;;;;;0.30;0.30;;;;;;;-145.06;0.00;60892.56;5847303;23;20014;-90
2023/07/11 12:42:54;;;;;;;0.47;0.40;;;;;;;-145.06;0.00;60892.56;5835093;23;20446;-89
2023/07/11 12:45:36;;;;;;;0.60;0.40;;;;;;;-145.06;0.00;60892.56;5840578;23;20014;-90
2023/07/11 12:48:19;;;;;;;0.25;0.20;;;;;;;-145.06;0.00;60892.56;5839849;23;20467;-91
2023/07/11 12:51:21;;;;;;;0.77;0.40;;;;;;;-145.06;0.00;60892.56;5839290;23;20011;-91
2023/07/11 12:54:15;;;;;;;0.38;0.38;;;;;;;-145.06;0.00;60892.56;5849206;23;20002;-91
2023/07/11 12:57:00;;;;;;;0.38;0.20;;;;;;;-145.06;0.00;60892.56;5840873;23;20298;-93
2023/07/11 12:59:39;;;;;;;0.57;0.40;;;;;;;-145.06;0.00;60892.56;5835134;23;20031;-90
2023/07/11 13:02:27;;;;;;;0.60;0.40;;;;;;;35.19;0.00;60892.56;5833556;23;20011;-91
2023/07/11 13:05:11;;;;;;;0.60;0.43;;;;;;;35.37;0.00;60892.56;5831725;23;20011;-88